Rose Pg — MBOK9 — position and weather

sailwx.info

Track history (hours):
 
Tides and Currents Weather Stations Pressure Air Temp Water Temp Dewpoint Dewpoint Depression Visibility Wind Speed Wind Dir Waves Ship Positions

Rose Pg

Last reported at 2018-Feb-24 22:34 UTC. Time now 2018-Feb-26 01:50 UTC.
Position N 14°34' W 061°06'.

Length 105 m; draft 5.1 m.

Type: Tanker. MMSI: 232010199.

Date/timePositionNaut miles runAvg speedWind from/ knotsBaromVisibWave heightAir tempDewpointWater temp
2018-Feb-24 22:34N 14°34' W 061°06'0 0.0
2018-Feb-24 22:22N 14°34' W 061°06'1 0.0
2018-Feb-22 20:39N 14°34' W 061°06'10510.9
2018-Feb-22 11:00N 16°04' W 062°03'5 9.8
2018-Feb-22 10:27N 16°08' W 062°06'510.2
2018-Feb-22 09:57N 16°13' W 062°09'510.6
2018-Feb-22 09:30N 16°17' W 062°12'510.6
2018-Feb-22 09:00N 16°21' W 062°15'510.3
2018-Feb-22 08:30N 16°25' W 062°18'510.0
2018-Feb-22 08:00N 16°29' W 062°21'5 9.6
2018-Feb-22 07:30N 16°33' W 062°24'5 9.9
2018-Feb-22 07:00N 16°37' W 062°27'5 9.7
2018-Feb-22 06:31N 16°41' W 062°30'510.6
2018-Feb-22 06:00N 16°46' W 062°33'810.2
2018-Feb-22 05:16N 16°52' W 062°37'2910.8
2018-Feb-22 02:32N 17°16' W 062°54'012.1
2018-Feb-22 02:30N 17°17' W 062°55'510.5
2018-Feb-22 01:59N 17°21' W 062°58'510.0
2018-Feb-22 01:28N 17°25' W 063°01'610.6
2018-Feb-22 00:57N 17°30' W 063°04'610.6
2018-Feb-22 00:25N 17°36' W 063°05'510.6
2018-Feb-21 23:54N 17°41' W 063°06'410.4
2018-Feb-21 23:30N 17°45' W 063°07'510.5
2018-Feb-21 23:00N 17°50' W 063°09'5 9.8
2018-Feb-21 22:30N 17°55' W 063°10'610.9
2018-Feb-21 21:57N 18°01' W 063°11'5 9.3
2018-Feb-21 21:24N 18°06' W 063°09'4 8.5
2018-Feb-21 20:59N 18°05' W 063°05'0 0.5
2018-Feb-21 20:28N 18°05' W 063°05'0 0.0
2018-Feb-21 19:58N 18°05' W 063°05'0 0.0
2018-Feb-21 19:28N 18°05' W 063°05'0 0.0
2018-Feb-21 18:58N 18°05' W 063°05'0 0.0
2018-Feb-21 18:16N 18°05' W 063°05'0 0.0
2018-Feb-21 17:49N 18°05' W 063°05'0 0.0
2018-Feb-21 17:28N 18°05' W 063°05'0 0.0
2018-Feb-21 16:58N 18°05' W 063°05'0 0.0
2018-Feb-21 16:16N 18°05' W 063°05'0 0.0
2018-Feb-21 15:49N 18°05' W 063°05'0 0.0
2018-Feb-21 15:19N 18°05' W 063°05'0 0.0
2018-Feb-21 14:52N 18°05' W 063°05'0 0.0
2018-Feb-21 14:22N 18°05' W 063°05'0 0.0
2018-Feb-21 13:37N 18°05' W 063°05'0 0.0
2018-Feb-21 13:22N 18°05' W 063°05'0 0.0
2018-Feb-21 12:52N 18°05' W 063°05'0 0.0
2018-Feb-21 12:22N 18°05' W 063°05'0 0.0
2018-Feb-21 11:52N 18°05' W 063°05'0 0.0
2018-Feb-21 11:10N 18°05' W 063°05'0 0.0
2018-Feb-21 10:55N 18°05' W 063°05'0 1.0
2018-Feb-21 10:24N 18°05' W 063°06'1 1.5
2018-Feb-21 09:56N 18°05' W 063°06'0 0.1
2018-Feb-21 09:29N 18°05' W 063°06'0 0.0
2018-Feb-21 08:55N 18°05' W 063°06'0 0.0
2018-Feb-21 08:28N 18°05' W 063°06'0 0.0
2018-Feb-21 07:59N 18°05' W 063°06'0 0.0
2018-Feb-21 07:29N 18°05' W 063°06'0 0.0
2018-Feb-21 06:59N 18°05' W 063°06'0 0.0
2018-Feb-21 06:16N 18°05' W 063°06'0 0.0
2018-Feb-21 05:59N 18°05' W 063°06'0 0.0
2018-Feb-21 05:28N 18°05' W 063°06'0 0.0
2018-Feb-21 04:58N 18°05' W 063°06'0 0.0
2018-Feb-21 04:28N 18°05' W 063°06'0 0.0
2018-Feb-21 03:49N 18°05' W 063°06'0 0.0
2018-Feb-21 03:20N 18°05' W 063°06'0 0.0
2018-Feb-21 02:46N 18°05' W 063°06'0 0.0
2018-Feb-21 02:22N 18°05' W 063°06'0 0.0
2018-Feb-21 01:53N 18°05' W 063°06'0 0.0
2018-Feb-21 01:22N 18°05' W 063°06'0 0.0
2018-Feb-21 00:53N 18°05' W 063°06'0 0.0
2018-Feb-21 00:23N 18°05' W 063°06'0 0.0
2018-Feb-20 23:55N 18°05' W 063°06'0 0.0
2018-Feb-20 23:26N 18°05' W 063°06'0 0.0
2018-Feb-20 22:56N 18°05' W 063°06'0 0.0
2018-Feb-20 22:25N 18°05' W 063°06'1 2.6
2018-Feb-20 21:56N 18°06' W 063°08'4 7.6
2018-Feb-20 21:23N 18°02' W 063°10'512.7
2018-Feb-20 20:57N 17°59' W 063°06'612.4
2018-Feb-20 20:29N 17°56' W 063°00'811.8
2018-Feb-20 19:50N 17°54' W 062°52'1 0.2
2018-Feb-20 15:01N 17°54' W 062°51'0 0.0
2018-Feb-20 14:59N 17°54' W 062°51'0 0.0
2018-Feb-20 14:15N 17°54' W 062°51'2 0.4
2018-Feb-20 08:39N 17°55' W 062°54'0 0.0
2018-Feb-20 06:57N 17°55' W 062°54'0 0.0
2018-Feb-20 06:30N 17°55' W 062°54'0 0.0
2018-Feb-20 05:57N 17°55' W 062°54'0 0.0
2018-Feb-20 05:30N 17°55' W 062°54'0 0.0
2018-Feb-20 04:00N 17°55' W 062°54'0 0.0
2018-Feb-20 03:30N 17°55' W 062°54'0 0.0
2018-Feb-20 03:00N 17°55' W 062°54'0 0.0
2018-Feb-20 02:15N 17°55' W 062°54'0 0.0
2018-Feb-20 01:51N 17°55' W 062°54'0 0.0
2018-Feb-20 01:18N 17°55' W 062°54'0 0.0
2018-Feb-20 00:39N 17°55' W 062°54'0 0.0
2018-Feb-20 00:24N 17°55' W 062°54'0 0.0
2018-Feb-19 23:54N 17°55' W 062°54'0 0.0
2018-Feb-19 23:24N 17°55' W 062°54'0 0.0
2018-Feb-19 22:09N 17°55' W 062°54'0 0.0
2018-Feb-19 21:21N 17°55' W 062°54'0 0.0
2018-Feb-19 19:12N 17°55' W 062°54'0 0.0
2018-Feb-19 18:57N 17°55' W 062°54'0 0.0
2018-Feb-19 17:15N 17°55' W 062°54'0 0.0
2018-Feb-19 16:57N 17°55' W 062°54'0 0.0
2018-Feb-19 16:30N 17°55' W 062°54'0 0.0
2018-Feb-19 15:45N 17°55' W 062°54'0 0.0
2018-Feb-19 15:27N 17°55' W 062°54'0 0.0
2018-Feb-19 14:18N 17°55' W 062°54'0 0.0
2018-Feb-19 13:48N 17°55' W 062°54'0 0.0
2018-Feb-19 13:11N 17°55' W 062°54'0 0.3
2018-Feb-19 12:54N 17°55' W 062°53'3 5.4
2018-Feb-19 12:18N 17°51' W 062°54'410.9
2018-Feb-19 11:57N 17°48' W 062°54'510.4
2018-Feb-19 11:27N 17°42' W 062°54'4110.4
2018-Feb-19 07:29N 17°03' W 062°42'611.7
2018-Feb-19 06:59N 16°58' W 062°39'611.6
2018-Feb-19 06:30N 16°54' W 062°35'611.3
2018-Feb-19 05:56N 16°48' W 062°31'511.2
2018-Feb-19 05:30N 16°45' W 062°28'611.2
2018-Feb-19 05:00N 16°40' W 062°25'611.0
2018-Feb-19 04:30N 16°35' W 062°23'510.6
2018-Feb-19 04:00N 16°30' W 062°20'510.4
2018-Feb-19 03:30N 16°26' W 062°17'510.6
2018-Feb-19 03:00N 16°21' W 062°14'510.4
2018-Feb-19 02:30N 16°17' W 062°11'610.5
2018-Feb-19 01:59N 16°12' W 062°08'610.5
2018-Feb-19 01:25N 16°07' W 062°05'3911.0
2018-Feb-18 21:53N 15°32' W 061°47'1411.3
2018-Feb-18 20:39N 15°20' W 061°42'211.2
2018-Feb-18 20:28N 15°18' W 061°41'711.5
2018-Feb-18 19:54N 15°12' W 061°38'49 1.9
2018-Feb-17 18:49N 14°35' W 061°05'2 5.3
2018-Feb-17 18:30N 14°36' W 061°04'2 0.2
2018-Feb-17 11:37N 14°35' W 061°05'1 0.1
2018-Feb-16 23:35N 14°34' W 061°06'0 5.0
2018-Feb-16 23:30N 14°34' W 061°06'5 9.8
2018-Feb-16 22:58N 14°29' W 061°08'511.5
2018-Feb-16 22:30N 14°24' W 061°07'612.2
2018-Feb-16 22:01N 14°18' W 061°06'  
Track history (hours):
 
Tides and Currents Weather Stations Pressure Air Temp Water Temp Dewpoint Dewpoint Depression Visibility Wind Speed Wind Dir Waves Ship Positions

Rose Pg

Last reported at 2018-Feb-24 22:34 UTC. Time now 2018-Feb-26 01:50 UTC.
Position N 14°34' W 061°06'.

Length 105 m; draft 5.1 m.

Type: Tanker. MMSI: 232010199.

Date/timePositionNaut miles runAvg speedWind from/ knotsBaromVisibWave heightAir tempDewpointWater temp
2018-Feb-24 22:34N 14°34' W 061°06'0 0.0
2018-Feb-24 22:22N 14°34' W 061°06'1 0.0
2018-Feb-22 20:39N 14°34' W 061°06'10510.9
2018-Feb-22 11:00N 16°04' W 062°03'5 9.8
2018-Feb-22 10:27N 16°08' W 062°06'510.2
2018-Feb-22 09:57N 16°13' W 062°09'510.6
2018-Feb-22 09:30N 16°17' W 062°12'510.6
2018-Feb-22 09:00N 16°21' W 062°15'510.3
2018-Feb-22 08:30N 16°25' W 062°18'510.0
2018-Feb-22 08:00N 16°29' W 062°21'5 9.6
2018-Feb-22 07:30N 16°33' W 062°24'5 9.9
2018-Feb-22 07:00N 16°37' W 062°27'5 9.7
2018-Feb-22 06:31N 16°41' W 062°30'510.6
2018-Feb-22 06:00N 16°46' W 062°33'810.2
2018-Feb-22 05:16N 16°52' W 062°37'2910.8
2018-Feb-22 02:32N 17°16' W 062°54'012.1
2018-Feb-22 02:30N 17°17' W 062°55'510.5
2018-Feb-22 01:59N 17°21' W 062°58'510.0
2018-Feb-22 01:28N 17°25' W 063°01'610.6
2018-Feb-22 00:57N 17°30' W 063°04'610.6
2018-Feb-22 00:25N 17°36' W 063°05'510.6
2018-Feb-21 23:54N 17°41' W 063°06'410.4
2018-Feb-21 23:30N 17°45' W 063°07'510.5
2018-Feb-21 23:00N 17°50' W 063°09'5 9.8
2018-Feb-21 22:30N 17°55' W 063°10'610.9
2018-Feb-21 21:57N 18°01' W 063°11'5 9.3
2018-Feb-21 21:24N 18°06' W 063°09'4 8.5
2018-Feb-21 20:59N 18°05' W 063°05'0 0.5
2018-Feb-21 20:28N 18°05' W 063°05'0 0.0
2018-Feb-21 19:58N 18°05' W 063°05'0 0.0
2018-Feb-21 19:28N 18°05' W 063°05'0 0.0
2018-Feb-21 18:58N 18°05' W 063°05'0 0.0
2018-Feb-21 18:16N 18°05' W 063°05'0 0.0
2018-Feb-21 17:49N 18°05' W 063°05'0 0.0
2018-Feb-21 17:28N 18°05' W 063°05'0 0.0
2018-Feb-21 16:58N 18°05' W 063°05'0 0.0
2018-Feb-21 16:16N 18°05' W 063°05'0 0.0
2018-Feb-21 15:49N 18°05' W 063°05'0 0.0
2018-Feb-21 15:19N 18°05' W 063°05'0 0.0
2018-Feb-21 14:52N 18°05' W 063°05'0 0.0
2018-Feb-21 14:22N 18°05' W 063°05'0 0.0
2018-Feb-21 13:37N 18°05' W 063°05'0 0.0
2018-Feb-21 13:22N 18°05' W 063°05'0 0.0
2018-Feb-21 12:52N 18°05' W 063°05'0 0.0
2018-Feb-21 12:22N 18°05' W 063°05'0 0.0
2018-Feb-21 11:52N 18°05' W 063°05'0 0.0
2018-Feb-21 11:10N 18°05' W 063°05'0 0.0
2018-Feb-21 10:55N 18°05' W 063°05'0 1.0
2018-Feb-21 10:24N 18°05' W 063°06'1 1.5
2018-Feb-21 09:56N 18°05' W 063°06'0 0.1
2018-Feb-21 09:29N 18°05' W 063°06'0 0.0
2018-Feb-21 08:55N 18°05' W 063°06'0 0.0
2018-Feb-21 08:28N 18°05' W 063°06'0 0.0
2018-Feb-21 07:59N 18°05' W 063°06'0 0.0
2018-Feb-21 07:29N 18°05' W 063°06'0 0.0
2018-Feb-21 06:59N 18°05' W 063°06'0 0.0
2018-Feb-21 06:16N 18°05' W 063°06'0 0.0
2018-Feb-21 05:59N 18°05' W 063°06'0 0.0
2018-Feb-21 05:28N 18°05' W 063°06'0 0.0
2018-Feb-21 04:58N 18°05' W 063°06'0 0.0
2018-Feb-21 04:28N 18°05' W 063°06'0 0.0
2018-Feb-21 03:49N 18°05' W 063°06'0 0.0
2018-Feb-21 03:20N 18°05' W 063°06'0 0.0
2018-Feb-21 02:46N 18°05' W 063°06'0 0.0
2018-Feb-21 02:22N 18°05' W 063°06'0 0.0
2018-Feb-21 01:53N 18°05' W 063°06'0 0.0
2018-Feb-21 01:22N 18°05' W 063°06'0 0.0
2018-Feb-21 00:53N 18°05' W 063°06'0 0.0
2018-Feb-21 00:23N 18°05' W 063°06'0 0.0
2018-Feb-20 23:55N 18°05' W 063°06'0 0.0
2018-Feb-20 23:26N 18°05' W 063°06'0 0.0
2018-Feb-20 22:56N 18°05' W 063°06'0 0.0
2018-Feb-20 22:25N 18°05' W 063°06'1 2.6
2018-Feb-20 21:56N 18°06' W 063°08'4 7.6
2018-Feb-20 21:23N 18°02' W 063°10'512.7
2018-Feb-20 20:57N 17°59' W 063°06'612.4
2018-Feb-20 20:29N 17°56' W 063°00'811.8
2018-Feb-20 19:50N 17°54' W 062°52'1 0.2
2018-Feb-20 15:01N 17°54' W 062°51'0 0.0
2018-Feb-20 14:59N 17°54' W 062°51'0 0.0
2018-Feb-20 14:15N 17°54' W 062°51'2 0.4
2018-Feb-20 08:39N 17°55' W 062°54'0 0.0
2018-Feb-20 06:57N 17°55' W 062°54'0 0.0
2018-Feb-20 06:30N 17°55' W 062°54'0 0.0
2018-Feb-20 05:57N 17°55' W 062°54'0 0.0
2018-Feb-20 05:30N 17°55' W 062°54'0 0.0
2018-Feb-20 04:00N 17°55' W 062°54'0 0.0
2018-Feb-20 03:30N 17°55' W 062°54'0 0.0
2018-Feb-20 03:00N 17°55' W 062°54'0 0.0
2018-Feb-20 02:15N 17°55' W 062°54'0 0.0
2018-Feb-20 01:51N 17°55' W 062°54'0 0.0
2018-Feb-20 01:18N 17°55' W 062°54'0 0.0
2018-Feb-20 00:39N 17°55' W 062°54'0 0.0
2018-Feb-20 00:24N 17°55' W 062°54'0 0.0
2018-Feb-19 23:54N 17°55' W 062°54'0 0.0
2018-Feb-19 23:24N 17°55' W 062°54'0 0.0
2018-Feb-19 22:09N 17°55' W 062°54'0 0.0
2018-Feb-19 21:21N 17°55' W 062°54'0 0.0
2018-Feb-19 19:12N 17°55' W 062°54'0 0.0
2018-Feb-19 18:57N 17°55' W 062°54'0 0.0
2018-Feb-19 17:15N 17°55' W 062°54'0 0.0
2018-Feb-19 16:57N 17°55' W 062°54'0 0.0
2018-Feb-19 16:30N 17°55' W 062°54'0 0.0
2018-Feb-19 15:45N 17°55' W 062°54'0 0.0
2018-Feb-19 15:27N 17°55' W 062°54'0 0.0
2018-Feb-19 14:18N 17°55' W 062°54'0 0.0
2018-Feb-19 13:48N 17°55' W 062°54'0 0.0
2018-Feb-19 13:11N 17°55' W 062°54'0 0.3
2018-Feb-19 12:54N 17°55' W 062°53'3 5.4
2018-Feb-19 12:18N 17°51' W 062°54'410.9
2018-Feb-19 11:57N 17°48' W 062°54'510.4
2018-Feb-19 11:27N 17°42' W 062°54'4110.4
2018-Feb-19 07:29N 17°03' W 062°42'611.7
2018-Feb-19 06:59N 16°58' W 062°39'611.6
2018-Feb-19 06:30N 16°54' W 062°35'611.3
2018-Feb-19 05:56N 16°48' W 062°31'511.2
2018-Feb-19 05:30N 16°45' W 062°28'611.2
2018-Feb-19 05:00N 16°40' W 062°25'611.0
2018-Feb-19 04:30N 16°35' W 062°23'510.6
2018-Feb-19 04:00N 16°30' W 062°20'510.4
2018-Feb-19 03:30N 16°26' W 062°17'510.6
2018-Feb-19 03:00N 16°21' W 062°14'510.4
2018-Feb-19 02:30N 16°17' W 062°11'610.5
2018-Feb-19 01:59N 16°12' W 062°08'610.5
2018-Feb-19 01:25N 16°07' W 062°05'3911.0
2018-Feb-18 21:53N 15°32' W 061°47'1411.3
2018-Feb-18 20:39N 15°20' W 061°42'211.2
2018-Feb-18 20:28N 15°18' W 061°41'711.5
2018-Feb-18 19:54N 15°12' W 061°38'49 1.9
2018-Feb-17 18:49N 14°35' W 061°05'2 5.3
2018-Feb-17 18:30N 14°36' W 061°04'2 0.2
2018-Feb-17 11:37N 14°35' W 061°05'1 0.1
2018-Feb-16 23:35N 14°34' W 061°06'0 5.0
2018-Feb-16 23:30N 14°34' W 061°06'5 9.8
2018-Feb-16 22:58N 14°29' W 061°08'511.5
2018-Feb-16 22:30N 14°24' W 061°07'612.2
2018-Feb-16 22:01N 14°18' W 061°06'  

Dump ship's entire track history